• Join FlightAware (Why Join?)
  • Login
  • US Flag 
10:05AM EST


 

Airport Tracker/Info


-or-


 

Live Flight TrackerFlight Track Log ✈ UAL3767 ✈ 28-Apr-2013 ✈ KPVD - KIAD

Flight Track Log - Related Links

Times and Time Zones

All times are in EDT time to prevent confusion due to time zone crossing. See the UAL3767 flight status page for this flight to view local times or setup timezone preferences in your user account.

Time Position Orientation Groundspeed Altitude Reporting Facility
EDT Latitude Longitude Course Direction KTS MPH feet Rate Location/Type
05:51AM 41.7311 -71.4219 351° North 159 183 800  Level Boston Center
05:53AM 41.8042 -71.4375 351° North 205 236 4,600 2,640 Climbing Boston Center
05:54AM 41.8381 -71.5122 301° West 216 249 7,100 2,460 Climbing Boston Center
05:55AM 41.8658 -71.5925 295° West 247 284 9,600 2,400 Climbing Boston Center
05:56AM 41.9061 -71.7036 296° West 278 320 11,900 2,100 Climbing Boston Center
05:57AM 41.9047 -71.8097 269° West 309 356 13,800 1,980 Climbing Boston Center
05:58AM 41.8700 -71.9244 248° West 338 389 15,900 2,100 Climbing Boston Center
05:59AM 41.8225 -72.0725 247° West 370 426 18,000 1,740 Climbing Boston Center
06:00AM 41.7769 -72.2147 247° West 381 438 20,100 1,740 Climbing Boston Center
06:01AM 41.7231 -72.3733 246° West 381 438 22,300 1,680 Climbing Boston Center
06:02AM 41.6875 -72.4819 246° West 386 444 23,500 1,380 Climbing Boston Center
06:03AM 41.6292 -72.6622 247° West 397 457 25,100 1,500 Climbing Boston Center
06:04AM 41.5828 -72.8036 246° West 403 464 26,600 1,380 Climbing Boston Center
06:05AM 41.5344 -72.9475 246° West 416 479 27,900 1,200 Climbing Boston Center
06:06AM 41.4942 -73.0692 246° West 410 472 29,100 1,260 Climbing Boston Center
06:07AM 41.4661 -73.2131 255° West 410 472 30,500 1,260 Climbing Boston Center
06:08AM 41.4986 -73.3519 287° West 381 438 31,700 720 Climbing Boston Center
06:09AM 41.5264 -73.4967 284° West 393 452 32,000 120 Climbing Boston Center
06:10AM 41.5517 -73.6633 282° West 408 470 32,000  Level Boston Center
06:11AM 41.5736 -73.7578 287° West 412 474 32,000  Level New York Center
06:12AM 41.5781 -73.9103 272° West 407 468 32,000  Level New York Center
06:13AM 41.5264 -74.0492 244° Southwest 397 457 32,000  Level New York Center
06:14AM 41.4339 -74.1497 219° Southwest 397 457 32,000  Level New York Center
06:15AM 41.3292 -74.2411 213° Southwest 421 484 32,000 -360 Level New York Center
06:16AM 41.2247 -74.3242 211° Southwest 434 499 31,300 -900 Descending New York Center
06:17AM 41.1200 -74.4122 212° Southwest 447 514 30,300 -720 Descending New York Center
06:18AM 41.0175 -74.4975 212° Southwest 447 514 30,000 -180 Descending New York Center
06:19AM 40.9147 -74.5850 213° Southwest 447 514 30,000 -60 Level New York Center
06:20AM 40.8622 -74.7247 244° Southwest 418 481 29,900 -660 Descending New York Center
06:21AM 40.8219 -74.8597 249° West 403 464 28,800 -1,020 Descending New York Center
06:22AM 40.7742 -74.9772 242° Southwest 397 457 27,900 -960 Descending New York Center
06:23AM 40.7203 -75.0861 237° Southwest 373 429 26,900 -1,020 Descending New York Center
06:24AM 40.6683 -75.1953 238° Southwest 362 417 25,900 -1,020 Descending New York Center
06:25AM 40.6164 -75.3011 237° Southwest 368 423 24,900 -1,020 Descending New York Center
06:26AM 40.5575 -75.4231 238° Southwest 384 442 23,900 -1,020 Descending New York Center
06:27AM 40.4986 -75.5417 237° Southwest 391 450 22,900 -1,020 Descending New York Center
06:28AM 40.4394 -75.6603 237° Southwest 396 456 21,900 -1,020 Descending New York Center
06:29AM 40.3803 -75.7789 237° Southwest 396 456 20,900 -960 Descending New York Center
06:30AM 40.3211 -75.8969 237° Southwest 396 456 20,000 -480 Descending New York Center
06:31AM 40.2597 -76.0150 236° Southwest 396 456 20,000 -540 Level New York Center
06:32AM 40.1978 -76.1408 237° Southwest 396 456 19,000 -1,080 Descending New York Center
06:33AM 40.1406 -76.2503 236° Southwest 377 434 17,900 -900 Descending New York Center
06:34AM 40.0872 -76.3628 238° Southwest 372 428 17,200 -960 Descending New York Center
06:36AM 39.9833 -76.5833 238° Southwest 366 421 15,300 -780 Descending Potomac TRACON
06:37AM 39.9333 -76.6833 237° Southwest 360 414 15,000 -180 Descending Potomac TRACON
06:38AM 39.9000 -76.7833 247° West 360 414 15,000  Level Potomac TRACON
06:39AM 39.8500 -76.8833 237° Southwest 356 410 15,000 -480 Level Potomac TRACON
06:40AM 39.7833 -77.0000 233° Southwest 352 405 14,100 -1,140 Descending Potomac TRACON
06:40AM 39.7500 -77.1000 247° West 342 394 12,900 -1,140 Descending Potomac TRACON
06:41AM 39.7000 -77.1833 232° Southwest 290 334 12,000 -1,080 Descending Potomac TRACON
06:42AM 39.6667 -77.2667 243° Southwest 269 310 10,800 -1,080 Descending Potomac TRACON
06:43AM 39.6167 -77.3333 226° Southwest 279 321 10,000 -720 Descending Potomac TRACON
06:44AM 39.5500 -77.3667 201° Southwest 274 315 9,500 -960 Descending Potomac TRACON
06:45AM 39.4833 -77.4167 210° Southwest 269 310 8,100 -1,380 Descending Potomac TRACON
06:46AM 39.4167 -77.4333 191° South 258 297 6,800 -1,320 Descending Potomac TRACON
06:47AM 39.3333 -77.4333 180° South 255 293 5,500 -1,440 Descending Potomac TRACON
06:48AM 39.2667 -77.4333 180° South 244 281 4,000 -1,320 Descending Potomac TRACON
06:49AM 39.2167 -77.4333 180° South 231 266 3,000 -540 Descending Potomac TRACON
06:50AM 39.1500 -77.4333 180° South 225 259 3,000  Level Potomac TRACON
06:51AM 39.1000 -77.4333 180° South 210 242 3,000 -480 Level Potomac TRACON
06:52AM 39.0500 -77.4333 180° South 158 182 2,100 -840 Descending Potomac TRACON
06:53AM 39.0167 -77.4333 180° South 127 146 1,400 -660 Descending Potomac TRACON
06:54AM 38.9833 -77.4333 180° South 121 139 800 -600 Descending Potomac TRACON
06:56AM 38.9474 -77.4599 180° South  Level Estimated
07:03AM 38.9474 -77.4599 349° North  Level Estimated
07:04AM 38.9474 -77.4599 349° North  Level Estimated